Campo Quijano, Argentina
Current Conditions -  °F | °C
As of 10:00 AM on Monday 20 Oct 2014 (Local Time) from SASA Reporting Station
Broken Clouds Broken Clouds  
Wind Chill: 61°   Ceiling: 1500
Heat Index: 61°   Visibility: 4mi
Dew Point: 57°   Wind: 3mph
Humidity: 88%   Direction: 70°ENE
Pressure: 30.27"   Gusts: NA
Location:  24.92°S, 65.65°W
Report Text: SASA 201300Z 07003KT 7000 FEW007 BKN015BKN100 16/14 Q1025
Loading
Personal Weather Stations






























Interactive Weather Map
Tropical Storm Tracking
New forecast layout! Learn more

10-Day Weather Forecast

Advertisements
Track Severe Weather on mobile